| time (UTC) | temp C | wind direction | speed KPH | gust KPH | rain 1hr cm | rain 24hr cm | rain mn cm | humidity % | barometer mb |
| 20260506230032 | 13 | 254 | 3.2 | 9.7 | 0.00 | 1.68 | 0.81 | 49 | 1013.5 |
| 20260506225514 | 13 | 254 | 1.6 | 9.7 | 0.00 | 1.98 | 0.81 | 50 | 1013.4 |
| 20260506225018 | 13 | 288 | 1.6 | 9.7 | 0.00 | 1.98 | 0.81 | 49 | 1013.5 |
| 20260506224531 | 13 | 301 | 3.2 | 9.7 | 0.00 | 1.98 | 0.81 | 49 | 1013.6 |
| 20260506224011 | 13 | 293 | 4.8 | 9.7 | 0.00 | 1.98 | 0.81 | 48 | 1013.7 |
| 20260506223510 | 13 | 261 | 3.2 | 8.0 | 0.00 | 1.98 | 0.81 | 48 | 1013.7 |
| 20260506223028 | 13 | 8 | 3.2 | 12.9 | 0.00 | 1.98 | 0.81 | 50 | 1013.7 |
| 20260506222514 | 13 | 290 | 4.8 | 12.9 | 0.00 | 1.98 | 0.81 | 49 | 1013.8 |
| 20260506222013 | 13 | 304 | 4.8 | 12.9 | 0.00 | 1.98 | 0.81 | 49 | 1013.7 |
| 20260506221527 | 13 | 334 | 3.2 | 12.9 | 0.00 | 1.98 | 0.81 | 49 | 1013.7 |
| 20260506221012 | 13 | 261 | 3.2 | 12.9 | 0.00 | 1.98 | 0.81 | 49 | 1013.3 |
| 20260506220510 | 13 | 347 | 3.2 | 9.7 | 0.00 | 1.98 | 0.81 | 49 | 1013.1 |
| 20260506220028 | 13 | 304 | 3.2 | 9.7 | 0.00 | 1.98 | 0.81 | 49 | 1012.9 |
| 20260506215513 | 13 | 288 | 1.6 | 16.1 | 0.00 | 2.18 | 0.81 | 49 | 1012.9 |
| 20260506215011 | 13 | 293 | 4.8 | 16.1 | 0.00 | 2.18 | 0.81 | 48 | 1012.9 |
| 20260506214530 | 13 | 7 | 6.4 | 16.1 | 0.00 | 2.18 | 0.81 | 48 | 1012.9 |
| 20260506214015 | 13 | 318 | 6.4 | 11.3 | 0.00 | 2.18 | 0.81 | 49 | 1012.8 |
| 20260506213513 | 13 | 296 | 1.6 | 8.0 | 0.00 | 2.18 | 0.81 | 50 | 1012.7 |
| 20260506213032 | 13 | 260 | 3.2 | 8.0 | 0.00 | 2.18 | 0.81 | 49 | 1012.7 |
| 20260506212513 | 13 | 295 | 1.6 | 14.5 | 0.00 | 2.18 | 0.81 | 49 | 1012.5 |
| 20260506212015 | 13 | 272 | 4.8 | 14.5 | 0.00 | 2.18 | 0.81 | 48 | 1012.5 |
| 20260506211530 | 13 | 270 | 4.8 | 11.3 | 0.00 | 2.18 | 0.81 | 49 | 1012.4 |
| 20260506211011 | 13 | 263 | 1.6 | 16.1 | 0.00 | 2.18 | 0.81 | 50 | 1012.4 |
| 20260506210513 | 13 | 300 | 3.2 | 16.1 | 0.00 | 2.18 | 0.81 | 49 | 1012.5 |
| 20260506210034 | 13 | 322 | 4.8 | 16.1 | 0.00 | 2.18 | 0.81 | 48 | 1012.4 |
| 20260506205512 | 13 | 276 | 4.8 | 16.1 | 0.00 | 2.18 | 0.81 | 49 | 1012.4 |
| 20260506205014 | 13 | 256 | 6.4 | 12.9 | 0.00 | 2.18 | 0.81 | 47 | 1012.3 |
| 20260506204530 | 13 | 281 | 3.2 | 14.5 | 0.00 | 2.18 | 0.81 | 47 | 1012.3 |
| 20260506204014 | 13 | 295 | 8.0 | 16.1 | 0.00 | 2.18 | 0.81 | 47 | 1012.4 |
| 20260506203512 | 13 | 321 | 6.4 | 16.1 | 0.00 | 2.18 | 0.81 | 49 | 1012.3 |
| 20260506203038 | 13 | 314 | 3.2 | 17.7 | 0.00 | 2.18 | 0.81 | 49 | 1012.3 |
| 20260506202513 | 13 | 35 | 6.4 | 19.3 | 0.00 | 2.18 | 0.81 | 49 | 1012.2 |
| 20260506202012 | 13 | 328 | 8.0 | 19.3 | 0.00 | 2.18 | 0.81 | 47 | 1012.2 |
| 20260506201537 | 14 | 322 | 8.0 | 20.9 | 0.00 | 2.18 | 0.81 | 47 | 1012.2 |
| 20260506201014 | 14 | 315 | 6.4 | 20.9 | 0.00 | 2.18 | 0.81 | 48 | 1012.2 |
| 20260506200514 | 14 | 296 | 8.0 | 17.7 | 0.00 | 2.18 | 0.81 | 48 | 1012.3 |
| 20260506200035 | 14 | 265 | 8.0 | 17.7 | 0.00 | 2.18 | 0.81 | 48 | 1012.2 |
| 20260506195516 | 15 | 279 | 6.4 | 16.1 | 0.00 | 2.18 | 0.81 | 47 | 1012.1 |
| 20260506195015 | 15 | 298 | 4.8 | 16.1 | 0.00 | 2.18 | 0.81 | 48 | 1012.0 |
| 20260506194531 | 15 | 299 | 3.2 | 14.5 | 0.00 | 2.18 | 0.81 | 49 | 1012.1 |
| 20260506194014 | 15 | 313 | 6.4 | 14.5 | 0.00 | 2.18 | 0.81 | 48 | 1012.1 |
| 20260506193512 | 15 | 323 | 6.4 | 12.9 | 0.00 | 2.18 | 0.81 | 46 | 1012.0 |
| 20260506193030 | 15 | 271 | 4.8 | 12.9 | 0.00 | 2.18 | 0.81 | 47 | 1012.0 |
| 20260506192511 | 15 | 307 | 4.8 | 12.9 | 0.00 | 2.18 | 0.81 | 45 | 1011.9 |
| 20260506192017 | 15 | 101 | 3.2 | 17.7 | 0.00 | 2.18 | 0.81 | 46 | 1011.9 |
| 20260506191532 | 15 | 290 | 6.4 | 17.7 | 0.00 | 2.18 | 0.81 | 45 | 1011.8 |
| 20260506191014 | 15 | 340 | 8.0 | 17.7 | 0.00 | 2.18 | 0.81 | 45 | 1011.9 |
| 20260506190513 | 15 | 314 | 6.4 | 12.9 | 0.00 | 2.18 | 0.81 | 45 | 1012.1 |
| 20260506190037 | 15 | 303 | 3.2 | 12.9 | 0.00 | 2.18 | 0.81 | 46 | 1012.0 |
| 20260506185512 | 15 | 211 | 6.4 | 12.9 | 0.00 | 2.18 | 0.81 | 44 | 1012.0 |
| 20260506185009 | 15 | 103 | 3.2 | 14.5 | 0.00 | 2.18 | 0.81 | 46 | 1011.9 |
| 20260506184535 | 15 | 279 | 3.2 | 14.5 | 0.00 | 2.18 | 0.81 | 49 | 1012.0 |
| 20260506184018 | 15 | 266 | 4.8 | 12.9 | 0.00 | 2.18 | 0.81 | 47 | 1011.9 |
| 20260506183513 | 15 | 252 | 1.6 | 6.4 | 0.00 | 2.18 | 0.81 | 48 | 1012.0 |
| 20260506183028 | 15 | 302 | 3.2 | 16.1 | 0.00 | 2.18 | 0.81 | 49 | 1012.1 |
| 20260506182512 | 15 | 249 | 3.2 | 16.1 | 0.00 | 2.18 | 0.81 | 48 | 1012.1 |
| 20260506182013 | 14 | 281 | 4.8 | 16.1 | 0.00 | 2.18 | 0.81 | 47 | 1012.2 |
| 20260506181530 | 14 | 345 | 6.4 | 16.1 | 0.00 | 2.18 | 0.81 | 48 | 1012.2 |
| 20260506181015 | 14 | 285 | 3.2 | 16.1 | 0.00 | 2.18 | 0.81 | 48 | 1012.2 |
| 20260506180513 | 15 | 325 | 4.8 | 14.5 | 0.00 | 2.18 | 0.81 | 47 | 1012.2 |
| 20260506180030 | 15 | 314 | 4.8 | 17.7 | 0.00 | 2.18 | 0.81 | 47 | 1012.2 |
| 20260506175513 | 15 | 42 | 3.2 | 17.7 | 0.00 | 2.18 | 0.81 | 47 | 1012.1 |
| 20260506175016 | 15 | 302 | 6.4 | 17.7 | 0.00 | 2.18 | 0.81 | 46 | 1012.2 |
| 20260506174529 | 15 | 71 | 3.2 | 17.7 | 0.00 | 2.18 | 0.81 | 51 | 1012.2 |
| 20260506174013 | 14 | 113 | 4.8 | 17.7 | 0.00 | 2.18 | 0.81 | 51 | 1012.4 |
| 20260506173513 | 14 | 234 | 8.0 | 16.1 | 0.00 | 2.18 | 0.81 | 49 | 1012.3 |
| 20260506173040 | 14 | 280 | 8.0 | 17.7 | 0.00 | 2.18 | 0.81 | 48 | 1012.2 |
| 20260506172512 | 14 | 283 | 3.2 | 17.7 | 0.00 | 2.18 | 0.81 | 49 | 1012.3 |
| 20260506172012 | 15 | 281 | 8.0 | 17.7 | 0.00 | 2.18 | 0.81 | 47 | 1012.4 |
| 20260506171529 | 15 | 258 | 3.2 | 16.1 | 0.00 | 2.18 | 0.81 | 47 | 1012.3 |
| 20260506171014 | 15 | 350 | 3.2 | 12.9 | 0.00 | 2.18 | 0.81 | 50 | 1012.3 |
| 20260506170510 | 14 | 98 | 4.8 | 12.9 | 0.00 | 2.18 | 0.81 | 50 | 1012.2 |
| 20260506170029 | 14 | 0 | 1.6 | 17.7 | 0.00 | 2.18 | 0.81 | 51 | 1012.2 |
| 20260506165511 | 13 | 115 | 8.0 | 17.7 | 0.00 | 2.18 | 0.81 | 46 | 1012.1 |
| 20260506165014 | 13 | 35 | 4.8 | 11.3 | 0.00 | 2.18 | 0.81 | 49 | 1012.2 |
| 20260506164538 | 13 | 342 | 3.2 | 14.5 | 0.00 | 2.18 | 0.81 | 53 | 1012.2 |
| 20260506164014 | 13 | 295 | 4.8 | 14.5 | 0.00 | 2.18 | 0.81 | 51 | 1012.5 |
| 20260506163512 | 13 | 253 | 6.4 | 14.5 | 0.00 | 2.18 | 0.81 | 53 | 1012.8 |
| 20260506163036 | 13 | 88 | 4.8 | 9.7 | 0.00 | 2.18 | 0.81 | 53 | 1012.7 |
| 20260506162517 | 13 | 94 | 3.2 | 16.1 | 0.00 | 2.18 | 0.81 | 53 | 1012.6 |
| 20260506162012 | 13 | 250 | 6.4 | 16.1 | 0.00 | 2.18 | 0.81 | 56 | 1012.4 |
| 20260506161528 | 13 | 254 | 3.2 | 12.9 | 0.00 | 2.18 | 0.81 | 54 | 1012.5 |
| 20260506161010 | 13 | 78 | 3.2 | 11.3 | 0.00 | 2.18 | 0.81 | 60 | 1012.5 |
| 20260506160513 | 13 | 303 | 4.8 | 11.3 | 0.00 | 2.18 | 0.81 | 56 | 1012.4 |
| 20260506160028 | 13 | 325 | 3.2 | 11.3 | 0.00 | 2.18 | 0.81 | 57 | 1012.4 |
| 20260506155511 | 13 | 91 | 3.2 | 11.3 | 0.00 | 2.18 | 0.81 | 61 | 1012.2 |
| 20260506155011 | 12 | 295 | 3.2 | 11.3 | 0.00 | 2.18 | 0.81 | 59 | 1012.2 |
| 20260506154532 | 12 | 86 | 1.6 | 16.1 | 0.00 | 2.18 | 0.81 | 63 | 1012.1 |
| 20260506154016 | 11 | 266 | 6.4 | 16.1 | 0.00 | 2.18 | 0.81 | 61 | 1012.1 |
| 20260506153511 | 12 | 307 | 6.4 | 16.1 | 0.00 | 2.18 | 0.81 | 62 | 1012.2 |
| 20260506153029 | 11 | 250 | 4.8 | 11.3 | 0.00 | 2.18 | 0.81 | 63 | 1012.0 |
| 20260506152512 | 11 | 0 | 3.2 | 9.7 | 0.00 | 2.18 | 0.81 | 64 | 1011.8 |
| 20260506152010 | 11 | 0 | 1.6 | 8.0 | 0.00 | 2.18 | 0.81 | 67 | 1011.8 |
| 20260506151531 | 11 | 270 | 1.6 | 9.7 | 0.00 | 2.18 | 0.81 | 65 | 1011.9 |
| 20260506151013 | 11 | 328 | 3.2 | 9.7 | 0.00 | 2.18 | 0.81 | 67 | 1011.8 |
| 20260506150513 | 11 | 278 | 3.2 | 9.7 | 0.00 | 2.18 | 0.81 | 67 | 1011.7 |
| 20260506150030 | 11 | 254 | 1.6 | 14.5 | 0.00 | 2.18 | 0.81 | 68 | 1011.7 |
| 20260506145510 | 11 | 309 | 1.6 | 14.5 | 0.00 | 2.18 | 0.81 | 69 | 1011.7 |
| 20260506145010 | 10 | 288 | 6.4 | 14.5 | 0.00 | 2.18 | 0.81 | 69 | 1011.8 |
| 20260506144534 | 10 | 269 | 1.6 | 11.3 | 0.00 | 2.18 | 0.81 | 72 | 1011.6 |
| 20260506144012 | 10 | 276 | 3.2 | 11.3 | 0.00 | 2.18 | 0.81 | 73 | 1011.8 |
| 20260506143513 | 10 | 315 | 4.8 | 11.3 | 0.00 | 2.18 | 0.81 | 73 | 1011.6 |
| 20260506143033 | 10 | 308 | 4.8 | 12.9 | 0.00 | 2.18 | 0.81 | 73 | 1011.8 |
| 20260506142514 | 10 | 295 | 4.8 | 12.9 | 0.00 | 2.18 | 0.81 | 73 | 1011.5 |
| 20260506142010 | 10 | 289 | 1.6 | 11.3 | 0.00 | 2.18 | 0.81 | 76 | 1011.4 |
| 20260506141533 | 9 | 301 | 3.2 | 11.3 | 0.00 | 2.18 | 0.81 | 76 | 1011.4 |
| 20260506141014 | 9 | 290 | 4.8 | 14.5 | 0.00 | 2.18 | 0.81 | 76 | 1011.3 |
| 20260506140512 | 9 | 320 | 4.8 | 14.5 | 0.00 | 2.18 | 0.81 | 77 | 1011.0 |
| 20260506140032 | 9 | 311 | 4.8 | 12.9 | 0.00 | 2.18 | 0.81 | 78 | 1011.0 |
| 20260506135513 | 8 | 283 | 3.2 | 12.9 | 0.00 | 2.18 | 0.81 | 79 | 1011.0 |
| 20260506135013 | 8 | 261 | 3.2 | 12.9 | 0.00 | 2.18 | 0.81 | 80 | 1011.0 |
| 20260506134528 | 8 | 310 | 1.6 | 12.9 | 0.00 | 2.18 | 0.81 | 83 | 1011.1 |
| 20260506134017 | 8 | 322 | 4.8 | 12.9 | 0.00 | 2.18 | 0.81 | 84 | 1010.9 |
| 20260506133516 | 8 | 262 | 4.8 | 11.3 | 0.00 | 2.18 | 0.81 | 86 | 1010.7 |
| 20260506133028 | 8 | 284 | 4.8 | 12.9 | 0.00 | 2.18 | 0.81 | 86 | 1010.7 |
| 20260506132513 | 8 | 304 | 1.6 | 12.9 | 0.00 | 2.18 | 0.81 | 87 | 1010.5 |
| 20260506132013 | 8 | 300 | 6.4 | 11.3 | 0.00 | 2.18 | 0.81 | 87 | 1010.6 |
| 20260506131544 | 8 | 359 | 4.8 | 9.7 | 0.00 | 2.18 | 0.81 | 87 | 1010.7 |
| 20260506131014 | 8 | 37 | 3.2 | 14.5 | 0.00 | 2.18 | 0.81 | 87 | 1010.7 |
| 20260506130514 | 8 | 297 | 8.0 | 14.5 | 0.00 | 2.18 | 0.81 | 87 | 1010.6 |
| 20260506130037 | 8 | 287 | 3.2 | 11.3 | 0.00 | 2.18 | 0.81 | 89 | 1010.7 |
| 20260506125513 | 8 | 285 | 1.6 | 9.7 | 0.00 | 2.18 | 0.81 | 89 | 1010.6 |
| 20260506125013 | 8 | 297 | 3.2 | 9.7 | 0.00 | 2.18 | 0.81 | 90 | 1010.6 |
| 20260506124529 | 8 | 302 | 3.2 | 11.3 | 0.00 | 2.18 | 0.81 | 90 | 1010.4 |
| 20260506124014 | 8 | 249 | 4.8 | 11.3 | 0.00 | 2.18 | 0.81 | 90 | 1010.4 |
| 20260506123513 | 8 | 288 | 4.8 | 11.3 | 0.00 | 2.18 | 0.81 | 90 | 1010.2 |
| 20260506123031 | 8 | 268 | 0.0 | 8.0 | 0.00 | 2.18 | 0.81 | 91 | 1009.8 |
| 20260506122512 | 8 | 274 | 1.6 | 8.0 | 0.00 | 2.18 | 0.81 | 91 | 1009.6 |
| 20260506122013 | 8 | 292 | 1.6 | 8.0 | 0.00 | 2.18 | 0.81 | 91 | 1009.7 |
| 20260506121530 | 8 | 244 | 3.2 | 8.0 | 0.00 | 2.18 | 0.81 | 91 | 1009.6 |
| 20260506121013 | 8 | 268 | 0.0 | 8.0 | 0.00 | 2.18 | 0.81 | 91 | 1009.4 |
| 20260506120512 | 8 | 323 | 1.6 | 8.0 | 0.00 | 2.18 | 0.81 | 92 | 1009.7 |
| 20260506120033 | 8 | 319 | 4.8 | 8.0 | 0.00 | 2.18 | 0.81 | 92 | 1009.9 |
| 20260506115516 | 8 | 256 | 3.2 | 8.0 | 0.00 | 2.18 | 0.81 | 92 | 1009.8 |
| 20260506115012 | 8 | 302 | 3.2 | 8.0 | 0.00 | 2.18 | 0.81 | 92 | 1009.5 |
| 20260506114534 | 7 | 274 | 0.0 | 6.4 | 0.00 | 2.18 | 0.81 | 92 | 1009.7 |
| 20260506114013 | 7 | 316 | 3.2 | 11.3 | 0.00 | 2.18 | 0.81 | 92 | 1009.9 |
| 20260506113511 | 7 | 298 | 4.8 | 11.3 | 0.00 | 2.18 | 0.81 | 92 | 1009.9 |
| 20260506113030 | 7 | 308 | 3.2 | 8.0 | 0.00 | 2.18 | 0.81 | 92 | 1009.4 |
| 20260506112513 | 7 | 333 | 3.2 | 6.4 | 0.00 | 2.18 | 0.81 | 92 | 1009.3 |
| 20260506112013 | 7 | 116 | 1.6 | 11.3 | 0.00 | 2.18 | 0.81 | 92 | 1008.9 |
| 20260506111531 | 7 | 0 | 1.6 | 11.3 | 0.00 | 2.18 | 0.81 | 92 | 1008.8 |
| 20260506111010 | 7 | 290 | 3.2 | 11.3 | 0.00 | 2.18 | 0.81 | 92 | 1008.8 |
| 20260506110513 | 7 | 294 | 3.2 | 11.3 | 0.00 | 2.18 | 0.81 | 92 | 1008.6 |
| 20260506110033 | 7 | 292 | 3.2 | 8.0 | 0.00 | 2.18 | 0.81 | 92 | 1008.3 |
| 20260506105513 | 7 | 335 | 1.6 | 6.4 | 0.00 | 2.18 | 0.81 | 92 | 1008.0 |
| 20260506105017 | 7 | 276 | 1.6 | 11.3 | 0.00 | 2.18 | 0.81 | 92 | 1008.3 |
| 20260506104533 | 8 | 311 | 1.6 | 11.3 | 0.00 | 2.18 | 0.81 | 92 | 1008.9 |
| 20260506104010 | 8 | 326 | 3.2 | 8.0 | 0.00 | 2.18 | 0.81 | 92 | 1008.9 |
| 20260506103514 | 8 | 30 | 1.6 | 4.8 | 0.00 | 2.18 | 0.81 | 92 | 1008.9 |
| 20260506103038 | 8 | 332 | 1.6 | 6.4 | 0.00 | 2.18 | 0.81 | 92 | 1008.7 |
| 20260506102513 | 8 | 289 | 3.2 | 6.4 | 0.00 | 2.18 | 0.81 | 92 | 1008.3 |
| 20260506102011 | 8 | 305 | 1.6 | 6.4 | 0.00 | 2.18 | 0.81 | 92 | 1008.0 |
| 20260506101541 | 8 | 336 | 3.2 | 6.4 | 0.00 | 2.18 | 0.81 | 92 | 1008.0 |
| 20260506101011 | 8 | 0 | 0.0 | 6.4 | 0.00 | 2.18 | 0.81 | 92 | 1007.9 |
| 20260506100509 | 8 | 317 | 1.6 | 6.4 | 0.00 | 2.18 | 0.81 | 92 | 1007.6 |
| 20260506100037 | 8 | 343 | 3.2 | 6.4 | 0.03 | 2.18 | 0.81 | 92 | 1007.4 |
| 20260506095510 | 8 | 321 | 1.6 | 6.4 | 0.03 | 2.18 | 0.81 | 92 | 1007.3 |
| 20260506095011 | 8 | 0 | 0.0 | 6.4 | 0.05 | 2.18 | 0.81 | 92 | 1007.2 |
| 20260506094528 | 8 | 121 | 1.6 | 9.7 | 0.05 | 2.18 | 0.81 | 92 | 1006.9 |
| 20260506094013 | 8 | 134 | 1.6 | 9.7 | 0.08 | 2.18 | 0.81 | 92 | 1007.3 |
| 20260506093511 | 7 | 313 | 3.2 | 9.7 | 0.08 | 2.18 | 0.81 | 92 | 1007.5 |
| 20260506093039 | 7 | 271 | 3.2 | 9.7 | 0.10 | 2.18 | 0.81 | 92 | 1007.3 |
| 20260506092508 | 7 | 329 | 1.6 | 9.7 | 0.13 | 2.18 | 0.81 | 92 | 1007.3 |
| 20260506092015 | 7 | 264 | 1.6 | 9.7 | 0.18 | 2.18 | 0.81 | 92 | 1007.6 |
| 20260506091535 | 7 | 0 | 1.6 | 9.7 | 0.20 | 2.18 | 0.81 | 92 | 1007.6 |
| 20260506091008 | 7 | 297 | 1.6 | 12.9 | 0.23 | 2.18 | 0.81 | 92 | 1007.5 |
| 20260506090512 | 7 | 300 | 3.2 | 12.9 | 0.25 | 2.18 | 0.81 | 92 | 1007.2 |
| 20260506090028 | 7 | 301 | 3.2 | 12.9 | 0.23 | 2.16 | 0.79 | 92 | 1007.2 |
| 20260506085508 | 7 | 327 | 3.2 | 14.5 | 0.25 | 2.16 | 0.79 | 92 | 1007.1 |
| 20260506085011 | 7 | 301 | 4.8 | 17.7 | 0.23 | 2.13 | 0.76 | 92 | 1007.4 |
| 20260506084529 | 7 | 141 | 4.8 | 17.7 | 0.23 | 2.13 | 0.76 | 92 | 1007.7 |
| 20260506084009 | 7 | 167 | 4.8 | 17.7 | 0.20 | 2.11 | 0.74 | 92 | 1007.7 |
| 20260506083512 | 7 | 323 | 3.2 | 17.7 | 0.20 | 2.11 | 0.74 | 92 | 1007.7 |
| 20260506083031 | 7 | 243 | 4.8 | 17.7 | 0.18 | 2.08 | 0.71 | 92 | 1007.5 |
| 20260506082512 | 8 | 210 | 1.6 | 11.3 | 0.13 | 2.03 | 0.66 | 92 | 1007.2 |
| 20260506082009 | 8 | 304 | 3.2 | 12.9 | 0.10 | 2.01 | 0.64 | 92 | 1007.1 |
| 20260506081539 | 8 | 249 | 3.2 | 12.9 | 0.08 | 1.98 | 0.61 | 91 | 1007.2 |
| 20260506081010 | 8 | 302 | 4.8 | 14.5 | 0.08 | 1.96 | 0.58 | 91 | 1007.3 |
| 20260506080510 | 8 | 290 | 6.4 | 19.3 | 0.05 | 1.93 | 0.56 | 91 | 1007.2 |
| 20260506073511 | 8 | 10 | 6.4 | 19.3 | 0.15 | 1.91 | 0.53 | 91 | 1006.7 |
| 20260506073038 | 8 | 70 | 4.8 | 14.5 | 0.15 | 1.91 | 0.53 | 91 | 1006.7 |
| 20260506072514 | 8 | 302 | 6.4 | 16.1 | 0.18 | 1.91 | 0.53 | 91 | 1006.6 |
| 20260506072011 | 8 | 302 | 4.8 | 16.1 | 0.20 | 1.91 | 0.53 | 91 | 1006.5 |
| 20260506071530 | 8 | 340 | 1.6 | 14.5 | 0.23 | 1.91 | 0.53 | 92 | 1006.6 |
| 20260506071017 | 8 | 256 | 1.6 | 14.5 | 0.23 | 1.88 | 0.51 | 92 | 1006.6 |
| 20260506070513 | 8 | 322 | 3.2 | 12.9 | 0.23 | 1.85 | 0.48 | 92 | 1006.6 |
| 20260506062513 | 9 | 31 | 6.4 | 12.9 | 0.30 | 1.73 | 0.36 | 92 | 1006.8 |
| 20260506062014 | 9 | 323 | 4.8 | 12.9 | 0.28 | 1.70 | 0.33 | 92 | 1006.9 |
| 20260506061532 | 10 | 0 | 1.6 | 12.9 | 0.28 | 1.68 | 0.30 | 92 | 1006.7 |
| 20260506061013 | 10 | 274 | 3.2 | 9.7 | 0.28 | 1.65 | 0.28 | 92 | 1006.7 |
| 20260506060514 | 10 | 324 | 4.8 | 9.7 | 0.25 | 1.63 | 0.25 | 92 | 1006.8 |
| 20260506051013 | 10 | 257 | 1.6 | 6.4 | 0.00 | 1.37 | 0.00 | 91 | 1007.0 |
| 20260506050513 | 10 | 319 | 1.6 | 6.4 | 0.00 | 1.37 | 0.00 | 92 | 1007.1 |
| 20260506045014 | 10 | 319 | 0.0 | 4.8 | 0.03 | 1.37 | 0.00 | 92 | 1007.3 |
| 20260506044559 | 10 | 0 | 0.0 | 4.8 | 0.03 | 1.37 | 0.00 | 91 | 1007.2 |
| 20260506044013 | 10 | 283 | 0.0 | 4.8 | 0.03 | 1.37 | 0.00 | 92 | 1007.1 |
| 20260506043513 | 10 | 321 | 1.6 | 8.0 | 0.05 | 1.37 | 0.00 | 91 | 1007.2 |
| 20260506043032 | 10 | 87 | 0.0 | 9.7 | 0.08 | 1.37 | 0.00 | 91 | 1007.2 |
| 20260506042513 | 10 | 243 | 1.6 | 9.7 | 0.10 | 1.37 | 0.00 | 91 | 1007.3 |
| 20260506042051 | 11 | 309 | 1.6 | 8.0 | 0.15 | 1.37 | 0.00 | 91 | 1007.2 |
| 20260506041527 | 11 | 307 | 1.6 | 8.0 | 0.18 | 1.37 | 0.00 | 91 | 1007.3 |
| 20260506041017 | 11 | 305 | 1.6 | 16.1 | 0.23 | 1.37 | 0.00 | 90 | 1007.3 |
| 20260506040509 | 11 | 262 | 4.8 | 16.1 | 0.25 | 1.37 | 0.00 | 90 | 1007.4 |
| 20260506040029 | 12 | 354 | 4.8 | 11.3 | 0.28 | 1.37 | 0.00 | 89 | 1007.5 |
| 20260506035509 | 12 | 345 | 4.8 | 11.3 | 0.33 | 1.37 | 1.37 | 89 | 1007.3 |
| 20260506035009 | 13 | 51 | 4.8 | 11.3 | 0.33 | 1.32 | 1.32 | 89 | 1007.4 |
| 20260506034558 | 14 | 293 | 1.6 | 6.4 | 0.36 | 1.32 | 1.32 | 92 | 1007.4 |
| 20260506034009 | 14 | 246 | 0.0 | 1.6 | 0.36 | 1.32 | 1.32 | 92 | 1007.4 |
| 20260506033510 | 14 | 0 | 0.0 | 3.2 | 0.36 | 1.32 | 1.32 | 92 | 1007.5 |
| 20260506033027 | 14 | 0 | 0.0 | 3.2 | 0.33 | 1.30 | 1.30 | 92 | 1007.5 |
| 20260506032511 | 14 | 247 | 0.0 | 4.8 | 0.30 | 1.24 | 1.24 | 91 | 1007.6 |
| 20260506032011 | 14 | 212 | 0.0 | 4.8 | 0.30 | 1.22 | 1.22 | 91 | 1007.6 |
| 20260506031531 | 14 | 257 | 1.6 | 4.8 | 0.28 | 1.17 | 1.17 | 91 | 1007.7 |
| 20260506031009 | 14 | 217 | 0.0 | 3.2 | 0.28 | 1.14 | 1.14 | 91 | 1007.8 |
| 20260506030509 | 14 | 81 | 0.0 | 4.8 | 0.28 | 1.12 | 1.12 | 91 | 1007.8 |
| 20260506030028 | 14 | 274 | 0.0 | 4.8 | 0.25 | 1.07 | 1.07 | 91 | 1007.9 |
| 20260506025511 | 14 | 112 | 0.0 | 4.8 | 0.25 | 1.04 | 1.04 | 92 | 1007.8 |
| 20260506025010 | 15 | 0 | 0.0 | 3.2 | 0.20 | 0.99 | 0.99 | 91 | 1007.8 |
| 20260506024528 | 15 | 253 | 0.0 | 3.2 | 0.23 | 0.99 | 0.99 | 91 | 1007.8 |
| 20260506024010 | 15 | 0 | 0.0 | 3.2 | 0.25 | 0.99 | 0.99 | 91 | 1007.8 |
| 20260506023512 | 15 | 265 | 1.6 | 3.2 | 0.28 | 0.97 | 0.97 | 91 | 1007.8 |
| 20260506023028 | 15 | 0 | 0.0 | 3.2 | 0.30 | 0.97 | 0.97 | 91 | 1007.8 |
| 20260506022510 | 15 | 0 | 0.0 | 3.2 | 0.30 | 0.94 | 0.94 | 91 | 1007.9 |
| 20260506022011 | 15 | 240 | 0.0 | 4.8 | 0.28 | 0.91 | 0.91 | 91 | 1007.9 |
| 20260506021530 | 15 | 269 | 1.6 | 4.8 | 0.25 | 0.86 | 0.86 | 92 | 1008.0 |
| 20260506021010 | 15 | 0 | 0.0 | 1.6 | 0.25 | 0.86 | 0.86 | 92 | 1008.0 |
| 20260506020508 | 15 | 0 | 0.0 | 1.6 | 0.23 | 0.84 | 0.84 | 91 | 1008.0 |
| 20260506020030 | 15 | 0 | 0.0 | 3.2 | 0.20 | 0.81 | 0.81 | 92 | 1007.9 |
| 20260506015512 | 15 | 0 | 0.0 | 3.2 | 0.18 | 0.79 | 0.79 | 92 | 1007.9 |
| 20260506015012 | 15 | 0 | 0.0 | 4.8 | 0.15 | 0.76 | 0.76 | 92 | 1007.8 |
| 20260506014530 | 15 | 0 | 0.0 | 4.8 | 0.13 | 0.74 | 0.74 | 91 | 1007.8 |
| 20260506014008 | 15 | 117 | 0.0 | 4.8 | 0.15 | 0.74 | 0.74 | 92 | 1007.7 |
| 20260506013513 | 15 | 0 | 0.0 | 1.6 | 0.13 | 0.69 | 0.69 | 91 | 1007.8 |
| 20260506013027 | 15 | 0 | 0.0 | 3.2 | 0.10 | 0.66 | 0.66 | 91 | 1007.8 |
| 20260506012511 | 15 | 0 | 0.0 | 3.2 | 0.10 | 0.64 | 0.64 | 91 | 1007.7 |
| 20260506012011 | 15 | 0 | 0.0 | 0.0 | 0.08 | 0.61 | 0.61 | 91 | 1007.6 |
| 20260506011528 | 15 | 0 | 0.0 | 0.0 | 0.08 | 0.61 | 0.61 | 91 | 1007.5 |
| 20260506011012 | 15 | 0 | 0.0 | 1.6 | 0.08 | 0.61 | 0.61 | 91 | 1007.4 |
| 20260506010508 | 15 | 0 | 0.0 | 1.6 | 0.08 | 0.61 | 0.61 | 91 | 1007.3 |
| 20260506010028 | 15 | 0 | 0.0 | 1.6 | 0.08 | 0.61 | 0.61 | 91 | 1007.5 |
| 20260506005509 | 15 | 0 | 0.0 | 1.6 | 0.08 | 0.61 | 0.61 | 91 | 1007.5 |
| 20260506005011 | 15 | 0 | 0.0 | 3.2 | 0.08 | 0.61 | 0.61 | 91 | 1007.3 |
| 20260506004539 | 15 | 0 | 0.0 | 3.2 | 0.08 | 0.61 | 0.61 | 91 | 1007.5 |
| 20260506004011 | 15 | 0 | 0.0 | 1.6 | 0.05 | 0.58 | 0.58 | 91 | 1007.6 |
| 20260506003509 | 15 | 0 | 0.0 | 3.2 | 0.03 | 0.56 | 0.56 | 91 | 1007.7 |
| 20260506003038 | 15 | 224 | 0.0 | 3.2 | 0.03 | 0.56 | 0.56 | 91 | 1007.6 |
| 20260506002511 | 15 | 0 | 0.0 | 6.4 | 0.00 | 0.53 | 0.53 | 91 | 1007.7 |
| 20260506002009 | 15 | 238 | 0.0 | 6.4 | 0.03 | 0.53 | 0.53 | 91 | 1007.6 |
| 20260506001530 | 15 | 250 | 0.0 | 6.4 | 0.03 | 0.53 | 0.53 | 91 | 1007.5 |
| 20260506001011 | 15 | 0 | 0.0 | 1.6 | 0.03 | 0.53 | 0.53 | 91 | 1007.6 |
| 20260506000511 | 15 | 213 | 0.0 | 3.2 | 0.03 | 0.53 | 0.53 | 91 | 1007.5 |
| 20260506000031 | 15 | 206 | 0.0 | 3.2 | 0.03 | 0.53 | 0.53 | 91 | 1007.6 |
| 20260505235511 | 15 | 0 | 0.0 | 1.6 | 0.03 | 0.53 | 0.53 | 91 | 1007.6 |
| 20260505235008 | 15 | 0 | 0.0 | 0.0 | 0.03 | 0.53 | 0.53 | 91 | 1007.6 |
| 20260505234548 | 15 | 0 | 0.0 | 0.0 | 0.03 | 0.53 | 0.53 | 91 | 1007.6 |
| 20260505234014 | 15 | 0 | 0.0 | 1.6 | 0.03 | 0.53 | 0.53 | 90 | 1007.6 |
| 20260505233515 | 15 | 0 | 0.0 | 1.6 | 0.03 | 0.53 | 0.53 | 91 | 1007.6 |
| 20260505233027 | 15 | 229 | 0.0 | 1.6 | 0.03 | 0.53 | 0.53 | 90 | 1007.6 |
| 20260505232512 | 15 | 0 | 0.0 | 1.6 | 0.05 | 0.53 | 0.53 | 90 | 1007.7 |
| 20260505232010 | 15 | 0 | 0.0 | 1.6 | 0.05 | 0.51 | 0.51 | 90 | 1007.8 |
| 20260505231532 | 15 | 0 | 0.0 | 3.2 | 0.05 | 0.51 | 0.51 | 90 | 1007.9 |
| 20260505231011 | 15 | 0 | 0.0 | 3.2 | 0.13 | 0.51 | 0.51 | 90 | 1007.9 |
| 20260505230509 | 15 | 0 | 0.0 | 1.6 | 0.28 | 0.51 | 0.51 | 90 | 1008.0 |